sensor_id;sensor_type;location;lat;lon;timestamp;temperature;humidity
2447;DHT22;26430;48.818;9.244;2023-12-22T00:01:24;11.50;99.90
2447;DHT22;26430;48.818;9.244;2023-12-22T00:03:49;11.60;99.90
2447;DHT22;26430;48.818;9.244;2023-12-22T00:06:15;11.60;99.90
2447;DHT22;26430;48.818;9.244;2023-12-22T00:08:41;11.50;99.90
2447;DHT22;26430;48.818;9.244;2023-12-22T00:11:07;11.50;99.90
2447;DHT22;26430;48.818;9.244;2023-12-22T00:13:32;11.50;99.90
2447;DHT22;26430;48.818;9.244;2023-12-22T00:15:59;11.60;99.90
2447;DHT22;26430;48.818;9.244;2023-12-22T00:18:26;11.60;99.90
2447;DHT22;26430;48.818;9.244;2023-12-22T00:20:51;11.50;99.90
2447;DHT22;26430;48.818;9.244;2023-12-22T00:23:17;11.40;99.90
2447;DHT22;26430;48.818;9.244;2023-12-22T00:25:42;11.40;99.90
2447;DHT22;26430;48.818;9.244;2023-12-22T00:28:08;11.50;99.90
2447;DHT22;26430;48.818;9.244;2023-12-22T00:30:33;11.40;99.90
2447;DHT22;26430;48.818;9.244;2023-12-22T00:32:59;11.40;99.90
2447;DHT22;26430;48.818;9.244;2023-12-22T00:35:25;11.40;99.90
2447;DHT22;26430;48.818;9.244;2023-12-22T00:37:50;11.50;99.90
2447;DHT22;26430;48.818;9.244;2023-12-22T00:40:16;11.50;99.90
2447;DHT22;26430;48.818;9.244;2023-12-22T00:42:41;11.50;99.90
2447;DHT22;26430;48.818;9.244;2023-12-22T00:45:07;11.60;99.90
2447;DHT22;26430;48.818;9.244;2023-12-22T00:47:33;11.50;99.90
2447;DHT22;26430;48.818;9.244;2023-12-22T00:50:02;11.50;99.90
2447;DHT22;26430;48.818;9.244;2023-12-22T00:52:27;11.50;99.90
2447;DHT22;26430;48.818;9.244;2023-12-22T00:54:53;11.50;99.90
2447;DHT22;26430;48.818;9.244;2023-12-22T00:57:19;11.40;99.90
2447;DHT22;26430;48.818;9.244;2023-12-22T00:59:44;11.30;99.90
2447;DHT22;26430;48.818;9.244;2023-12-22T01:02:16;11.40;99.90
2447;DHT22;26430;48.818;9.244;2023-12-22T01:04:43;11.40;99.90
2447;DHT22;26430;48.818;9.244;2023-12-22T01:07:09;11.30;99.90
2447;DHT22;26430;48.818;9.244;2023-12-22T01:09:35;11.20;99.90
2447;DHT22;26430;48.818;9.244;2023-12-22T01:12:01;11.20;99.90
2447;DHT22;26430;48.818;9.244;2023-12-22T01:14:30;11.00;99.90
2447;DHT22;26430;48.818;9.244;2023-12-22T01:16:56;11.00;99.90
2447;DHT22;26430;48.818;9.244;2023-12-22T01:19:22;11.00;99.90
2447;DHT22;26430;48.818;9.244;2023-12-22T01:21:47;10.80;99.90
2447;DHT22;26430;48.818;9.244;2023-12-22T01:24:13;10.70;99.90
2447;DHT22;26430;48.818;9.244;2023-12-22T01:26:38;10.60;99.90
2447;DHT22;26430;48.818;9.244;2023-12-22T01:29:04;10.60;99.90
2447;DHT22;26430;48.818;9.244;2023-12-22T01:31:30;10.70;99.90
2447;DHT22;26430;48.818;9.244;2023-12-22T01:33:55;10.80;99.90
2447;DHT22;26430;48.818;9.244;2023-12-22T01:36:21;10.80;99.90
2447;DHT22;26430;48.818;9.244;2023-12-22T01:38:46;11.00;99.90
2447;DHT22;26430;48.818;9.244;2023-12-22T01:41:12;11.10;99.90
2447;DHT22;26430;48.818;9.244;2023-12-22T01:43:38;11.10;99.90
2447;DHT22;26430;48.818;9.244;2023-12-22T01:46:04;11.10;99.90
2447;DHT22;26430;48.818;9.244;2023-12-22T01:48:31;11.20;99.90
2447;DHT22;26430;48.818;9.244;2023-12-22T01:50:58;11.30;99.90
2447;DHT22;26430;48.818;9.244;2023-12-22T01:53:25;11.30;99.90
2447;DHT22;26430;48.818;9.244;2023-12-22T01:55:51;11.30;99.90
2447;DHT22;26430;48.818;9.244;2023-12-22T01:58:23;11.20;99.90
2447;DHT22;26430;48.818;9.244;2023-12-22T02:00:48;11.30;99.90
2447;DHT22;26430;48.818;9.244;2023-12-22T02:03:14;11.30;99.90
2447;DHT22;26430;48.818;9.244;2023-12-22T02:05:42;11.30;99.90
2447;DHT22;26430;48.818;9.244;2023-12-22T02:08:07;11.40;99.90
2447;DHT22;26430;48.818;9.244;2023-12-22T02:10:33;11.40;99.90
2447;DHT22;26430;48.818;9.244;2023-12-22T02:12:59;11.40;99.90
2447;DHT22;26430;48.818;9.244;2023-12-22T02:15:24;11.50;99.90
2447;DHT22;26430;48.818;9.244;2023-12-22T02:17:59;11.50;99.90
2447;DHT22;26430;48.818;9.244;2023-12-22T02:20:28;11.40;99.90
2447;DHT22;26430;48.818;9.244;2023-12-22T02:22:55;11.40;99.90
2447;DHT22;26430;48.818;9.244;2023-12-22T02:25:20;11.40;99.90
2447;DHT22;26430;48.818;9.244;2023-12-22T02:28:28;11.40;99.90
2447;DHT22;26430;48.818;9.244;2023-12-22T02:30:43;11.30;99.90
2447;DHT22;26430;48.818;9.244;2023-12-22T02:33:10;11.30;99.90
2447;DHT22;26430;48.818;9.244;2023-12-22T02:35:38;11.40;99.90
2447;DHT22;26430;48.818;9.244;2023-12-22T02:38:07;11.40;99.90
2447;DHT22;26430;48.818;9.244;2023-12-22T02:40:34;11.40;99.90
2447;DHT22;26430;48.818;9.244;2023-12-22T02:43:01;11.40;99.90
2447;DHT22;26430;48.818;9.244;2023-12-22T02:45:27;11.40;99.90
2447;DHT22;26430;48.818;9.244;2023-12-22T02:47:52;11.40;99.90
2447;DHT22;26430;48.818;9.244;2023-12-22T02:50:18;11.40;99.90
2447;DHT22;26430;48.818;9.244;2023-12-22T02:52:43;11.50;99.90
2447;DHT22;26430;48.818;9.244;2023-12-22T02:55:09;11.40;99.90
2447;DHT22;26430;48.818;9.244;2023-12-22T02:57:35;11.50;99.90
2447;DHT22;26430;48.818;9.244;2023-12-22T03:00:01;11.30;99.90
2447;DHT22;26430;48.818;9.244;2023-12-22T03:02:26;11.40;99.90
2447;DHT22;26430;48.818;9.244;2023-12-22T03:04:52;11.40;99.90
2447;DHT22;26430;48.818;9.244;2023-12-22T03:07:17;11.40;99.90
2447;DHT22;26430;48.818;9.244;2023-12-22T03:09:43;11.40;99.90
2447;DHT22;26430;48.818;9.244;2023-12-22T03:12:09;11.40;99.90
2447;DHT22;26430;48.818;9.244;2023-12-22T03:14:35;11.40;99.90
2447;DHT22;26430;48.818;9.244;2023-12-22T03:17:02;11.40;99.90
2447;DHT22;26430;48.818;9.244;2023-12-22T03:19:28;11.40;99.90
2447;DHT22;26430;48.818;9.244;2023-12-22T03:21:54;11.40;99.90
2447;DHT22;26430;48.818;9.244;2023-12-22T03:24:19;11.40;99.90
2447;DHT22;26430;48.818;9.244;2023-12-22T03:26:46;11.40;99.90
2447;DHT22;26430;48.818;9.244;2023-12-22T03:29:12;11.50;99.90
2447;DHT22;26430;48.818;9.244;2023-12-22T03:31:37;11.50;99.90
2447;DHT22;26430;48.818;9.244;2023-12-22T03:34:03;11.50;99.90
2447;DHT22;26430;48.818;9.244;2023-12-22T03:36:28;11.50;99.90
2447;DHT22;26430;48.818;9.244;2023-12-22T03:38:54;11.50;99.90
2447;DHT22;26430;48.818;9.244;2023-12-22T03:41:20;11.60;99.90
2447;DHT22;26430;48.818;9.244;2023-12-22T03:43:45;11.60;99.90
2447;DHT22;26430;48.818;9.244;2023-12-22T03:46:11;11.60;99.90
2447;DHT22;26430;48.818;9.244;2023-12-22T03:48:36;11.60;99.90
2447;DHT22;26430;48.818;9.244;2023-12-22T03:51:02;11.50;99.90
2447;DHT22;26430;48.818;9.244;2023-12-22T03:53:27;11.40;99.90
2447;DHT22;26430;48.818;9.244;2023-12-22T03:55:53;11.50;99.90
2447;DHT22;26430;48.818;9.244;2023-12-22T03:58:18;11.50;99.90
2447;DHT22;26430;48.818;9.244;2023-12-22T04:00:44;11.50;99.90
2447;DHT22;26430;48.818;9.244;2023-12-22T04:03:10;11.50;99.90
2447;DHT22;26430;48.818;9.244;2023-12-22T04:05:35;11.50;99.90
2447;DHT22;26430;48.818;9.244;2023-12-22T04:08:01;11.50;99.90
2447;DHT22;26430;48.818;9.244;2023-12-22T04:10:26;11.50;99.90
2447;DHT22;26430;48.818;9.244;2023-12-22T04:12:52;11.50;99.90
2447;DHT22;26430;48.818;9.244;2023-12-22T04:15:18;11.40;99.90
2447;DHT22;26430;48.818;9.244;2023-12-22T04:17:43;11.30;99.90
2447;DHT22;26430;48.818;9.244;2023-12-22T04:20:09;11.20;99.90
2447;DHT22;26430;48.818;9.244;2023-12-22T04:22:35;11.20;99.90
2447;DHT22;26430;48.818;9.244;2023-12-22T04:25:00;11.10;99.90
2447;DHT22;26430;48.818;9.244;2023-12-22T04:27:26;11.10;99.90
2447;DHT22;26430;48.818;9.244;2023-12-22T04:29:51;11.10;99.90
2447;DHT22;26430;48.818;9.244;2023-12-22T04:32:17;11.10;99.90
2447;DHT22;26430;48.818;9.244;2023-12-22T04:34:42;11.10;99.90
2447;DHT22;26430;48.818;9.244;2023-12-22T04:37:09;11.10;99.90
2447;DHT22;26430;48.818;9.244;2023-12-22T04:39:34;11.10;99.90
2447;DHT22;26430;48.818;9.244;2023-12-22T04:42:00;11.10;99.90
2447;DHT22;26430;48.818;9.244;2023-12-22T04:44:25;11.10;99.90
2447;DHT22;26430;48.818;9.244;2023-12-22T04:46:51;11.10;99.90
2447;DHT22;26430;48.818;9.244;2023-12-22T04:49:17;11.20;99.90
2447;DHT22;26430;48.818;9.244;2023-12-22T04:51:43;11.30;99.90
2447;DHT22;26430;48.818;9.244;2023-12-22T04:54:09;11.30;99.90
2447;DHT22;26430;48.818;9.244;2023-12-22T04:56:34;11.30;99.90
2447;DHT22;26430;48.818;9.244;2023-12-22T04:59:00;11.30;99.90
2447;DHT22;26430;48.818;9.244;2023-12-22T05:01:25;11.30;99.90
2447;DHT22;26430;48.818;9.244;2023-12-22T05:03:51;11.20;99.90
2447;DHT22;26430;48.818;9.244;2023-12-22T05:06:16;11.10;99.90
2447;DHT22;26430;48.818;9.244;2023-12-22T05:08:42;11.10;99.90
2447;DHT22;26430;48.818;9.244;2023-12-22T05:11:08;11.10;99.90
2447;DHT22;26430;48.818;9.244;2023-12-22T05:13:33;11.20;99.90
2447;DHT22;26430;48.818;9.244;2023-12-22T05:15:59;11.30;99.90
2447;DHT22;26430;48.818;9.244;2023-12-22T05:18:26;11.30;99.90
2447;DHT22;26430;48.818;9.244;2023-12-22T05:20:52;11.20;99.90
2447;DHT22;26430;48.818;9.244;2023-12-22T05:23:19;11.30;99.90
2447;DHT22;26430;48.818;9.244;2023-12-22T05:25:44;11.30;99.90
2447;DHT22;26430;48.818;9.244;2023-12-22T05:28:10;11.20;99.90
2447;DHT22;26430;48.818;9.244;2023-12-22T05:30:35;11.30;99.90
2447;DHT22;26430;48.818;9.244;2023-12-22T05:33:01;11.20;99.90
2447;DHT22;26430;48.818;9.244;2023-12-22T05:35:27;11.30;99.90
2447;DHT22;26430;48.818;9.244;2023-12-22T05:37:52;11.30;99.90
2447;DHT22;26430;48.818;9.244;2023-12-22T05:40:18;11.40;99.90
2447;DHT22;26430;48.818;9.244;2023-12-22T05:42:44;11.40;99.90
2447;DHT22;26430;48.818;9.244;2023-12-22T05:45:10;11.40;99.90
2447;DHT22;26430;48.818;9.244;2023-12-22T05:47:37;11.40;99.90
2447;DHT22;26430;48.818;9.244;2023-12-22T05:50:03;11.40;99.90
2447;DHT22;26430;48.818;9.244;2023-12-22T05:52:29;11.40;99.90
2447;DHT22;26430;48.818;9.244;2023-12-22T05:54:54;11.40;99.90
2447;DHT22;26430;48.818;9.244;2023-12-22T05:57:20;11.30;99.90
2447;DHT22;26430;48.818;9.244;2023-12-22T05:59:45;11.20;99.90
2447;DHT22;26430;48.818;9.244;2023-12-22T06:02:11;11.20;99.90
2447;DHT22;26430;48.818;9.244;2023-12-22T06:04:36;11.20;99.90
2447;DHT22;26430;48.818;9.244;2023-12-22T06:07:02;11.30;99.90
2447;DHT22;26430;48.818;9.244;2023-12-22T06:09:28;11.30;99.90
2447;DHT22;26430;48.818;9.244;2023-12-22T06:11:53;11.30;99.90
2447;DHT22;26430;48.818;9.244;2023-12-22T06:14:19;11.40;99.90
2447;DHT22;26430;48.818;9.244;2023-12-22T06:16:44;11.30;99.90
2447;DHT22;26430;48.818;9.244;2023-12-22T06:19:10;11.40;99.90
2447;DHT22;26430;48.818;9.244;2023-12-22T06:21:39;11.40;99.90
2447;DHT22;26430;48.818;9.244;2023-12-22T06:24:05;11.40;99.90
2447;DHT22;26430;48.818;9.244;2023-12-22T06:26:31;11.40;99.90
2447;DHT22;26430;48.818;9.244;2023-12-22T06:28:56;11.40;99.90
2447;DHT22;26430;48.818;9.244;2023-12-22T06:31:22;11.40;99.90
2447;DHT22;26430;48.818;9.244;2023-12-22T06:33:49;11.40;99.90
2447;DHT22;26430;48.818;9.244;2023-12-22T06:36:24;11.30;99.90
2447;DHT22;26430;48.818;9.244;2023-12-22T06:38:51;11.40;99.90
2447;DHT22;26430;48.818;9.244;2023-12-22T06:41:24;11.40;99.90
2447;DHT22;26430;48.818;9.244;2023-12-22T06:43:51;11.50;99.90
2447;DHT22;26430;48.818;9.244;2023-12-22T06:46:20;11.50;99.90
2447;DHT22;26430;48.818;9.244;2023-12-22T06:48:47;11.50;99.90
2447;DHT22;26430;48.818;9.244;2023-12-22T06:51:27;11.40;99.90
2447;DHT22;26430;48.818;9.244;2023-12-22T06:53:54;11.40;99.90
2447;DHT22;26430;48.818;9.244;2023-12-22T06:56:24;11.50;99.90
2447;DHT22;26430;48.818;9.244;2023-12-22T06:58:51;11.60;99.90
2447;DHT22;26430;48.818;9.244;2023-12-22T07:01:29;11.50;99.90
2447;DHT22;26430;48.818;9.244;2023-12-22T07:03:55;11.60;99.90
2447;DHT22;26430;48.818;9.244;2023-12-22T07:06:21;11.60;99.90
2447;DHT22;26430;48.818;9.244;2023-12-22T07:14:11;11.50;99.90
2447;DHT22;26430;48.818;9.244;2023-12-22T07:16:37;11.50;99.90
2447;DHT22;26430;48.818;9.244;2023-12-22T07:19:03;11.50;99.90
2447;DHT22;26430;48.818;9.244;2023-12-22T07:21:29;11.40;99.90
2447;DHT22;26430;48.818;9.244;2023-12-22T07:23:54;11.50;99.90
2447;DHT22;26430;48.818;9.244;2023-12-22T07:26:20;11.50;99.90
2447;DHT22;26430;48.818;9.244;2023-12-22T07:28:49;11.50;99.90
2447;DHT22;26430;48.818;9.244;2023-12-22T07:31:15;11.50;99.90
2447;DHT22;26430;48.818;9.244;2023-12-22T07:33:41;11.50;99.90
2447;DHT22;26430;48.818;9.244;2023-12-22T07:36:07;11.50;99.90
2447;DHT22;26430;48.818;9.244;2023-12-22T07:38:32;11.50;99.90
2447;DHT22;26430;48.818;9.244;2023-12-22T07:40:58;11.60;99.90
2447;DHT22;26430;48.818;9.244;2023-12-22T07:43:24;11.60;99.90
2447;DHT22;26430;48.818;9.244;2023-12-22T07:45:50;11.60;99.90
2447;DHT22;26430;48.818;9.244;2023-12-22T07:48:16;11.60;99.90
2447;DHT22;26430;48.818;9.244;2023-12-22T07:50:42;11.60;99.90
2447;DHT22;26430;48.818;9.244;2023-12-22T07:53:08;11.60;99.90
2447;DHT22;26430;48.818;9.244;2023-12-22T07:55:34;11.60;99.90
2447;DHT22;26430;48.818;9.244;2023-12-22T07:58:00;11.50;99.90
2447;DHT22;26430;48.818;9.244;2023-12-22T08:00:25;11.50;99.90
2447;DHT22;26430;48.818;9.244;2023-12-22T08:02:51;11.60;99.90
2447;DHT22;26430;48.818;9.244;2023-12-22T08:05:18;11.50;99.90
2447;DHT22;26430;48.818;9.244;2023-12-22T08:07:44;11.50;99.90
2447;DHT22;26430;48.818;9.244;2023-12-22T08:10:10;11.40;99.90
2447;DHT22;26430;48.818;9.244;2023-12-22T08:12:35;11.30;99.90
2447;DHT22;26430;48.818;9.244;2023-12-22T08:15:01;11.40;99.90
2447;DHT22;26430;48.818;9.244;2023-12-22T08:17:27;11.40;99.90
2447;DHT22;26430;48.818;9.244;2023-12-22T08:19:53;11.40;99.90
2447;DHT22;26430;48.818;9.244;2023-12-22T08:22:18;11.30;99.90
2447;DHT22;26430;48.818;9.244;2023-12-22T08:24:44;11.20;99.90
2447;DHT22;26430;48.818;9.244;2023-12-22T08:27:10;11.10;99.90
2447;DHT22;26430;48.818;9.244;2023-12-22T08:29:36;11.20;99.90
2447;DHT22;26430;48.818;9.244;2023-12-22T08:32:01;11.20;99.90
2447;DHT22;26430;48.818;9.244;2023-12-22T08:34:28;11.10;99.90
2447;DHT22;26430;48.818;9.244;2023-12-22T08:36:53;11.00;99.90
2447;DHT22;26430;48.818;9.244;2023-12-22T08:39:19;11.00;99.90
2447;DHT22;26430;48.818;9.244;2023-12-22T08:41:45;11.00;99.90
2447;DHT22;26430;48.818;9.244;2023-12-22T08:44:11;11.00;99.90
2447;DHT22;26430;48.818;9.244;2023-12-22T08:46:39;11.10;99.90
2447;DHT22;26430;48.818;9.244;2023-12-22T08:49:05;11.10;99.90
2447;DHT22;26430;48.818;9.244;2023-12-22T08:51:30;11.10;99.90
2447;DHT22;26430;48.818;9.244;2023-12-22T08:53:56;11.10;99.90
2447;DHT22;26430;48.818;9.244;2023-12-22T08:56:22;11.10;99.90
2447;DHT22;26430;48.818;9.244;2023-12-22T08:58:48;11.10;99.90
2447;DHT22;26430;48.818;9.244;2023-12-22T09:01:18;11.10;99.90
2447;DHT22;26430;48.818;9.244;2023-12-22T09:03:43;11.10;99.90
2447;DHT22;26430;48.818;9.244;2023-12-22T09:06:17;11.20;99.90
2447;DHT22;26430;48.818;9.244;2023-12-22T09:08:43;11.20;99.90
2447;DHT22;26430;48.818;9.244;2023-12-22T09:11:11;11.20;99.90
2447;DHT22;26430;48.818;9.244;2023-12-22T09:13:37;11.30;99.90
2447;DHT22;26430;48.818;9.244;2023-12-22T09:16:03;11.30;99.90
2447;DHT22;26430;48.818;9.244;2023-12-22T09:18:29;11.30;99.90
2447;DHT22;26430;48.818;9.244;2023-12-22T09:20:54;11.30;99.90
2447;DHT22;26430;48.818;9.244;2023-12-22T09:23:20;11.30;99.90
2447;DHT22;26430;48.818;9.244;2023-12-22T09:25:46;11.40;99.90
2447;DHT22;26430;48.818;9.244;2023-12-22T09:28:12;11.30;99.90
2447;DHT22;26430;48.818;9.244;2023-12-22T09:30:38;11.40;99.90
2447;DHT22;26430;48.818;9.244;2023-12-22T09:33:03;11.40;99.90
2447;DHT22;26430;48.818;9.244;2023-12-22T09:35:29;11.40;99.90
2447;DHT22;26430;48.818;9.244;2023-12-22T09:37:55;11.40;99.90
2447;DHT22;26430;48.818;9.244;2023-12-22T09:40:20;11.40;99.90
2447;DHT22;26430;48.818;9.244;2023-12-22T09:42:48;11.40;99.90
2447;DHT22;26430;48.818;9.244;2023-12-22T09:45:16;11.40;99.90
2447;DHT22;26430;48.818;9.244;2023-12-22T09:47:44;11.40;99.90
2447;DHT22;26430;48.818;9.244;2023-12-22T09:50:11;11.50;99.90
2447;DHT22;26430;48.818;9.244;2023-12-22T09:52:38;11.50;99.90
2447;DHT22;26430;48.818;9.244;2023-12-22T09:55:07;11.50;99.90
2447;DHT22;26430;48.818;9.244;2023-12-22T09:57:33;11.40;99.90
2447;DHT22;26430;48.818;9.244;2023-12-22T10:00:00;11.40;99.90
2447;DHT22;26430;48.818;9.244;2023-12-22T10:02:32;11.40;99.90
2447;DHT22;26430;48.818;9.244;2023-12-22T10:04:58;11.40;99.90
2447;DHT22;26430;48.818;9.244;2023-12-22T10:07:24;11.50;99.90
2447;DHT22;26430;48.818;9.244;2023-12-22T10:09:51;11.40;99.90
2447;DHT22;26430;48.818;9.244;2023-12-22T10:12:19;11.50;99.90
2447;DHT22;26430;48.818;9.244;2023-12-22T10:14:46;11.40;99.90
2447;DHT22;26430;48.818;9.244;2023-12-22T10:17:12;11.50;99.90
2447;DHT22;26430;48.818;9.244;2023-12-22T10:19:39;11.50;99.90
2447;DHT22;26430;48.818;9.244;2023-12-22T10:22:04;11.50;99.90
2447;DHT22;26430;48.818;9.244;2023-12-22T10:24:46;11.50;99.90
2447;DHT22;26430;48.818;9.244;2023-12-22T10:27:18;11.50;99.90
2447;DHT22;26430;48.818;9.244;2023-12-22T10:29:57;11.50;99.90
2447;DHT22;26430;48.818;9.244;2023-12-22T10:32:23;11.40;99.90
2447;DHT22;26430;48.818;9.244;2023-12-22T10:34:51;11.50;99.90
2447;DHT22;26430;48.818;9.244;2023-12-22T10:37:17;11.40;99.90
2447;DHT22;26430;48.818;9.244;2023-12-22T10:39:43;11.40;99.90
2447;DHT22;26430;48.818;9.244;2023-12-22T10:42:09;11.50;99.90
2447;DHT22;26430;48.818;9.244;2023-12-22T10:44:35;11.50;99.90
2447;DHT22;26430;48.818;9.244;2023-12-22T10:47:05;11.50;99.90
2447;DHT22;26430;48.818;9.244;2023-12-22T10:49:31;11.50;99.90
2447;DHT22;26430;48.818;9.244;2023-12-22T10:51:57;11.60;99.90
2447;DHT22;26430;48.818;9.244;2023-12-22T10:54:23;11.60;99.90
2447;DHT22;26430;48.818;9.244;2023-12-22T10:56:48;11.50;99.90
2447;DHT22;26430;48.818;9.244;2023-12-22T10:59:18;11.50;99.90
2447;DHT22;26430;48.818;9.244;2023-12-22T11:01:45;11.50;99.90
2447;DHT22;26430;48.818;9.244;2023-12-22T11:04:13;11.40;99.90
2447;DHT22;26430;48.818;9.244;2023-12-22T11:06:43;11.50;99.90
2447;DHT22;26430;48.818;9.244;2023-12-22T11:09:10;11.50;99.90
2447;DHT22;26430;48.818;9.244;2023-12-22T11:11:40;11.40;99.90
2447;DHT22;26430;48.818;9.244;2023-12-22T11:14:07;11.40;99.90
2447;DHT22;26430;48.818;9.244;2023-12-22T11:16:34;11.40;99.90
2447;DHT22;26430;48.818;9.244;2023-12-22T11:19:01;11.50;99.90
2447;DHT22;26430;48.818;9.244;2023-12-22T11:21:27;11.50;99.90
2447;DHT22;26430;48.818;9.244;2023-12-22T11:23:55;11.50;99.90
2447;DHT22;26430;48.818;9.244;2023-12-22T11:26:22;11.50;99.90
2447;DHT22;26430;48.818;9.244;2023-12-22T11:28:49;11.50;99.90
2447;DHT22;26430;48.818;9.244;2023-12-22T11:31:16;11.50;99.90
2447;DHT22;26430;48.818;9.244;2023-12-22T11:33:49;11.50;99.90
2447;DHT22;26430;48.818;9.244;2023-12-22T11:36:17;11.50;99.90
2447;DHT22;26430;48.818;9.244;2023-12-22T11:38:44;11.40;99.90
2447;DHT22;26430;48.818;9.244;2023-12-22T11:41:17;11.30;99.90
2447;DHT22;26430;48.818;9.244;2023-12-22T11:43:44;11.30;99.90
2447;DHT22;26430;48.818;9.244;2023-12-22T11:46:10;11.40;99.90
2447;DHT22;26430;48.818;9.244;2023-12-22T11:48:37;11.40;99.90
2447;DHT22;26430;48.818;9.244;2023-12-22T11:51:14;11.30;99.90
2447;DHT22;26430;48.818;9.244;2023-12-22T11:53:40;11.20;99.90
2447;DHT22;26430;48.818;9.244;2023-12-22T11:56:07;11.30;99.90
2447;DHT22;26430;48.818;9.244;2023-12-22T11:58:44;11.10;99.90
2447;DHT22;26430;48.818;9.244;2023-12-22T12:01:17;11.20;99.90
2447;DHT22;26430;48.818;9.244;2023-12-22T12:08:52;11.20;99.90
2447;DHT22;26430;48.818;9.244;2023-12-22T12:11:19;11.20;99.90
2447;DHT22;26430;48.818;9.244;2023-12-22T12:13:46;11.30;99.90
2447;DHT22;26430;48.818;9.244;2023-12-22T12:16:18;11.30;99.90
2447;DHT22;26430;48.818;9.244;2023-12-22T12:18:46;11.20;99.90
2447;DHT22;26430;48.818;9.244;2023-12-22T12:21:12;11.20;99.90
2447;DHT22;26430;48.818;9.244;2023-12-22T12:23:38;11.20;99.90
2447;DHT22;26430;48.818;9.244;2023-12-22T12:26:06;11.20;99.90
2447;DHT22;26430;48.818;9.244;2023-12-22T12:28:33;11.20;99.90
2447;DHT22;26430;48.818;9.244;2023-12-22T12:31:01;11.20;99.90
2447;DHT22;26430;48.818;9.244;2023-12-22T12:33:28;11.30;99.90
2447;DHT22;26430;48.818;9.244;2023-12-22T12:35:56;11.20;99.90
2447;DHT22;26430;48.818;9.244;2023-12-22T12:38:55;11.30;99.90
2447;DHT22;26430;48.818;9.244;2023-12-22T12:41:29;11.10;99.90
2447;DHT22;26430;48.818;9.244;2023-12-22T12:43:58;11.10;99.90
2447;DHT22;26430;48.818;9.244;2023-12-22T12:46:31;11.00;99.90
2447;DHT22;26430;48.818;9.244;2023-12-22T12:49:23;11.10;99.90
2447;DHT22;26430;48.818;9.244;2023-12-22T12:51:53;11.10;99.90
2447;DHT22;26430;48.818;9.244;2023-12-22T12:54:19;11.10;99.90
2447;DHT22;26430;48.818;9.244;2023-12-22T12:56:46;11.10;99.90
2447;DHT22;26430;48.818;9.244;2023-12-22T12:59:13;11.10;99.90
2447;DHT22;26430;48.818;9.244;2023-12-22T13:01:46;11.10;99.90
2447;DHT22;26430;48.818;9.244;2023-12-22T13:04:12;11.10;99.90
2447;DHT22;26430;48.818;9.244;2023-12-22T13:06:45;11.10;99.90
2447;DHT22;26430;48.818;9.244;2023-12-22T13:09:11;11.10;99.90
2447;DHT22;26430;48.818;9.244;2023-12-22T13:11:39;11.10;99.90
2447;DHT22;26430;48.818;9.244;2023-12-22T13:14:05;11.10;99.90
2447;DHT22;26430;48.818;9.244;2023-12-22T13:16:33;11.10;99.90
2447;DHT22;26430;48.818;9.244;2023-12-22T13:18:59;11.10;99.90
2447;DHT22;26430;48.818;9.244;2023-12-22T13:21:26;11.10;99.90
2447;DHT22;26430;48.818;9.244;2023-12-22T13:24:16;11.10;99.90
2447;DHT22;26430;48.818;9.244;2023-12-22T13:26:43;11.20;99.90
2447;DHT22;26430;48.818;9.244;2023-12-22T13:29:10;11.30;99.90
2447;DHT22;26430;48.818;9.244;2023-12-22T13:31:37;11.30;99.90
2447;DHT22;26430;48.818;9.244;2023-12-22T13:34:08;11.40;99.90
2447;DHT22;26430;48.818;9.244;2023-12-22T13:36:34;11.50;99.90
2447;DHT22;26430;48.818;9.244;2023-12-22T13:39:02;11.50;99.90
2447;DHT22;26430;48.818;9.244;2023-12-22T13:41:32;11.60;99.90
2447;DHT22;26430;48.818;9.244;2023-12-22T13:43:57;11.70;99.90
2447;DHT22;26430;48.818;9.244;2023-12-22T13:46:27;11.70;99.90
2447;DHT22;26430;48.818;9.244;2023-12-22T13:48:54;11.70;99.90
2447;DHT22;26430;48.818;9.244;2023-12-22T13:51:20;11.80;99.90
2447;DHT22;26430;48.818;9.244;2023-12-22T13:53:48;11.80;99.90
2447;DHT22;26430;48.818;9.244;2023-12-22T13:56:14;11.80;99.90
2447;DHT22;26430;48.818;9.244;2023-12-22T13:58:44;11.90;99.90
2447;DHT22;26430;48.818;9.244;2023-12-22T14:01:14;11.90;99.90
2447;DHT22;26430;48.818;9.244;2023-12-22T14:03:43;12.00;99.90
2447;DHT22;26430;48.818;9.244;2023-12-22T14:06:12;12.00;99.90
2447;DHT22;26430;48.818;9.244;2023-12-22T14:08:40;12.00;99.90
2447;DHT22;26430;48.818;9.244;2023-12-22T14:11:09;12.00;99.90
2447;DHT22;26430;48.818;9.244;2023-12-22T14:13:35;12.10;99.90
2447;DHT22;26430;48.818;9.244;2023-12-22T14:16:05;12.10;99.90
2447;DHT22;26430;48.818;9.244;2023-12-22T14:18:31;12.10;99.90
2447;DHT22;26430;48.818;9.244;2023-12-22T14:20:57;12.10;99.90
2447;DHT22;26430;48.818;9.244;2023-12-22T14:23:24;12.20;99.90
2447;DHT22;26430;48.818;9.244;2023-12-22T14:25:49;12.10;99.90
2447;DHT22;26430;48.818;9.244;2023-12-22T14:28:15;12.10;99.90
2447;DHT22;26430;48.818;9.244;2023-12-22T14:30:40;12.10;99.90
2447;DHT22;26430;48.818;9.244;2023-12-22T14:33:06;12.20;99.90
2447;DHT22;26430;48.818;9.244;2023-12-22T14:35:31;12.20;99.90
2447;DHT22;26430;48.818;9.244;2023-12-22T14:38:00;12.20;99.90
2447;DHT22;26430;48.818;9.244;2023-12-22T14:40:25;12.30;99.90
2447;DHT22;26430;48.818;9.244;2023-12-22T14:42:51;12.20;99.90
2447;DHT22;26430;48.818;9.244;2023-12-22T14:45:20;12.10;99.90
2447;DHT22;26430;48.818;9.244;2023-12-22T14:47:45;12.10;99.90
2447;DHT22;26430;48.818;9.244;2023-12-22T14:50:11;12.20;99.90
2447;DHT22;26430;48.818;9.244;2023-12-22T14:52:37;12.30;99.90
2447;DHT22;26430;48.818;9.244;2023-12-22T14:55:02;12.20;99.90
2447;DHT22;26430;48.818;9.244;2023-12-22T14:57:29;12.20;99.90
2447;DHT22;26430;48.818;9.244;2023-12-22T14:59:55;12.20;99.90
2447;DHT22;26430;48.818;9.244;2023-12-22T15:02:21;12.30;99.90
2447;DHT22;26430;48.818;9.244;2023-12-22T15:04:46;12.20;99.90
2447;DHT22;26430;48.818;9.244;2023-12-22T15:07:18;12.20;99.90
2447;DHT22;26430;48.818;9.244;2023-12-22T15:09:44;12.30;99.90
2447;DHT22;26430;48.818;9.244;2023-12-22T15:12:15;12.30;99.90
2447;DHT22;26430;48.818;9.244;2023-12-22T15:14:45;12.30;99.90
2447;DHT22;26430;48.818;9.244;2023-12-22T15:17:10;12.30;99.90
2447;DHT22;26430;48.818;9.244;2023-12-22T15:19:42;12.30;99.90
2447;DHT22;26430;48.818;9.244;2023-12-22T15:22:09;12.30;99.90
2447;DHT22;26430;48.818;9.244;2023-12-22T15:24:37;12.40;99.90
2447;DHT22;26430;48.818;9.244;2023-12-22T15:27:05;12.40;99.90
2447;DHT22;26430;48.818;9.244;2023-12-22T15:29:31;12.30;99.90
2447;DHT22;26430;48.818;9.244;2023-12-22T15:31:56;12.40;99.90
2447;DHT22;26430;48.818;9.244;2023-12-22T15:34:25;12.40;99.90
2447;DHT22;26430;48.818;9.244;2023-12-22T15:36:51;12.40;99.90
2447;DHT22;26430;48.818;9.244;2023-12-22T15:39:16;12.40;99.90
2447;DHT22;26430;48.818;9.244;2023-12-22T15:41:42;12.40;99.90
2447;DHT22;26430;48.818;9.244;2023-12-22T15:44:07;12.50;99.90
2447;DHT22;26430;48.818;9.244;2023-12-22T15:46:33;12.50;99.90
2447;DHT22;26430;48.818;9.244;2023-12-22T15:48:58;12.50;99.90
2447;DHT22;26430;48.818;9.244;2023-12-22T15:51:24;12.40;99.90
2447;DHT22;26430;48.818;9.244;2023-12-22T15:53:49;12.50;99.90